sensor_id;sensor_type;location;lat;lon;timestamp;pressure;altitude;pressure_sealevel;temperature;humidity
50696;BME280;36665;51.786;21.594;2023-12-20T00:02:30;92434.27;;;5.00;100.00
50696;BME280;36665;51.786;21.594;2023-12-20T00:10:54;92401.05;;;4.92;100.00
50696;BME280;36665;51.786;21.594;2023-12-20T00:19:21;92381.30;;;4.87;100.00
50696;BME280;36665;51.786;21.594;2023-12-20T00:27:45;92387.90;;;4.87;100.00
50696;BME280;36665;51.786;21.594;2023-12-20T00:36:09;92375.96;;;4.85;100.00
50696;BME280;36665;51.786;21.594;2023-12-20T00:44:33;92367.04;;;4.83;100.00
50696;BME280;36665;51.786;21.594;2023-12-20T00:53:01;92360.58;;;4.81;100.00
50696;BME280;36665;51.786;21.594;2023-12-20T01:01:26;92337.36;;;4.74;100.00
50696;BME280;36665;51.786;21.594;2023-12-20T01:09:52;92328.55;;;4.73;100.00
50696;BME280;36665;51.786;21.594;2023-12-20T01:18:19;92332.35;;;4.74;100.00
50696;BME280;36665;51.786;21.594;2023-12-20T01:26:44;92324.68;;;4.71;100.00
50696;BME280;36665;51.786;21.594;2023-12-20T01:35:09;92326.30;;;4.72;100.00
50696;BME280;36665;51.786;21.594;2023-12-20T01:43:34;92330.70;;;4.74;100.00
50696;BME280;36665;51.786;21.594;2023-12-20T01:52:13;92340.80;;;4.76;100.00
50696;BME280;36665;51.786;21.594;2023-12-20T02:00:41;92325.47;;;4.71;100.00
50696;BME280;36665;51.786;21.594;2023-12-20T02:09:08;92306.27;;;4.67;100.00
50696;BME280;36665;51.786;21.594;2023-12-20T02:17:33;92312.28;;;4.68;100.00
50696;BME280;36665;51.786;21.594;2023-12-20T02:25:57;92330.73;;;4.72;100.00
50696;BME280;36665;51.786;21.594;2023-12-20T02:34:22;92339.71;;;4.76;100.00
50696;BME280;36665;51.786;21.594;2023-12-20T02:42:47;92354.64;;;4.80;100.00
50696;BME280;36665;51.786;21.594;2023-12-20T02:51:12;92354.54;;;4.81;100.00
50696;BME280;36665;51.786;21.594;2023-12-20T02:59:37;92334.45;;;4.75;100.00
50696;BME280;36665;51.786;21.594;2023-12-20T03:08:03;92333.98;;;4.75;100.00
50696;BME280;36665;51.786;21.594;2023-12-20T03:16:27;92350.63;;;4.79;100.00
50696;BME280;36665;51.786;21.594;2023-12-20T03:24:51;92362.78;;;4.83;100.00
50696;BME280;36665;51.786;21.594;2023-12-20T03:33:15;92376.09;;;4.86;100.00
50696;BME280;36665;51.786;21.594;2023-12-20T03:41:40;92385.27;;;4.88;100.00
50696;BME280;36665;51.786;21.594;2023-12-20T03:50:05;92394.98;;;4.91;100.00
50696;BME280;36665;51.786;21.594;2023-12-20T03:58:30;92405.94;;;4.95;100.00
50696;BME280;36665;51.786;21.594;2023-12-20T04:06:55;92420.98;;;4.99;100.00
50696;BME280;36665;51.786;21.594;2023-12-20T04:15:19;92417.84;;;4.98;100.00
50696;BME280;36665;51.786;21.594;2023-12-20T04:23:42;92390.49;;;4.91;100.00
50696;BME280;36665;51.786;21.594;2023-12-20T04:32:06;92374.42;;;4.86;100.00
50696;BME280;36665;51.786;21.594;2023-12-20T04:40:30;92371.50;;;4.85;100.00
50696;BME280;36665;51.786;21.594;2023-12-20T04:48:55;92374.95;;;4.87;100.00
50696;BME280;36665;51.786;21.594;2023-12-20T04:57:19;92368.32;;;4.85;100.00
50696;BME280;36665;51.786;21.594;2023-12-20T05:05:44;92363.27;;;4.84;100.00
50696;BME280;36665;51.786;21.594;2023-12-20T05:14:11;92358.25;;;4.82;100.00
50696;BME280;36665;51.786;21.594;2023-12-20T05:22:37;92365.75;;;4.83;100.00
50696;BME280;36665;51.786;21.594;2023-12-20T05:31:01;92367.70;;;4.84;100.00
50696;BME280;36665;51.786;21.594;2023-12-20T05:39:26;92373.42;;;4.85;100.00
50696;BME280;36665;51.786;21.594;2023-12-20T05:47:51;92398.52;;;4.92;100.00
50696;BME280;36665;51.786;21.594;2023-12-20T05:56:18;92406.48;;;4.96;100.00
50696;BME280;36665;51.786;21.594;2023-12-20T06:04:43;92386.89;;;4.89;100.00
50696;BME280;36665;51.786;21.594;2023-12-20T06:13:09;92379.44;;;4.87;100.00
50696;BME280;36665;51.786;21.594;2023-12-20T06:21:33;92377.04;;;4.87;100.00
50696;BME280;36665;51.786;21.594;2023-12-20T06:30:00;92368.37;;;4.84;100.00
50696;BME280;36665;51.786;21.594;2023-12-20T06:38:25;92337.74;;;4.76;100.00
50696;BME280;36665;51.786;21.594;2023-12-20T06:46:51;92323.83;;;4.72;100.00
50696;BME280;36665;51.786;21.594;2023-12-20T06:55:17;92323.41;;;4.73;100.00
50696;BME280;36665;51.786;21.594;2023-12-20T07:03:44;92335.77;;;4.76;100.00
50696;BME280;36665;51.786;21.594;2023-12-20T07:12:09;92353.40;;;4.80;100.00
50696;BME280;36665;51.786;21.594;2023-12-20T07:20:33;92356.93;;;4.81;100.00
50696;BME280;36665;51.786;21.594;2023-12-20T07:28:58;92344.63;;;4.78;100.00
50696;BME280;36665;51.786;21.594;2023-12-20T07:37:23;92330.23;;;4.74;100.00
50696;BME280;36665;51.786;21.594;2023-12-20T07:45:48;92331.11;;;4.74;100.00
50696;BME280;36665;51.786;21.594;2023-12-20T07:54:11;92320.85;;;4.72;100.00
50696;BME280;36665;51.786;21.594;2023-12-20T08:02:35;92333.25;;;4.75;100.00
50696;BME280;36665;51.786;21.594;2023-12-20T08:10:59;92325.70;;;4.74;100.00
50696;BME280;36665;51.786;21.594;2023-12-20T08:19:24;92302.43;;;4.67;100.00
50696;BME280;36665;51.786;21.594;2023-12-20T08:27:49;92301.08;;;4.67;100.00
50696;BME280;36665;51.786;21.594;2023-12-20T08:36:17;92320.06;;;4.72;100.00
50696;BME280;36665;51.786;21.594;2023-12-20T08:44:42;92330.45;;;4.74;100.00
50696;BME280;36665;51.786;21.594;2023-12-20T08:53:07;92339.57;;;4.77;100.00
50696;BME280;36665;51.786;21.594;2023-12-20T09:01:33;92337.80;;;4.77;100.00
50696;BME280;36665;51.786;21.594;2023-12-20T09:10:05;92339.36;;;4.77;100.00
50696;BME280;36665;51.786;21.594;2023-12-20T09:18:29;92316.91;;;4.70;100.00
50696;BME280;36665;51.786;21.594;2023-12-20T09:26:53;92306.17;;;4.68;100.00
50696;BME280;36665;51.786;21.594;2023-12-20T09:35:18;92309.47;;;4.69;100.00
50696;BME280;36665;51.786;21.594;2023-12-20T09:43:43;92302.95;;;4.67;100.00
50696;BME280;36665;51.786;21.594;2023-12-20T09:52:09;92315.95;;;4.70;100.00
50696;BME280;36665;51.786;21.594;2023-12-20T10:00:35;92341.09;;;4.77;100.00
50696;BME280;36665;51.786;21.594;2023-12-20T10:08:58;92355.48;;;4.81;100.00
50696;BME280;36665;51.786;21.594;2023-12-20T10:17:23;92365.35;;;4.84;100.00
50696;BME280;36665;51.786;21.594;2023-12-20T10:26:19;92390.19;;;4.90;100.00
50696;BME280;36665;51.786;21.594;2023-12-20T10:34:45;92401.09;;;4.94;100.00
50696;BME280;36665;51.786;21.594;2023-12-20T10:43:09;92367.29;;;4.85;100.00
50696;BME280;36665;51.786;21.594;2023-12-20T10:51:35;92342.70;;;4.78;100.00
50696;BME280;36665;51.786;21.594;2023-12-20T11:00:06;92342.60;;;4.78;100.00
50696;BME280;36665;51.786;21.594;2023-12-20T11:09:22;92347.40;;;4.79;100.00
50696;BME280;36665;51.786;21.594;2023-12-20T11:17:34;92353.64;;;4.80;100.00
50696;BME280;36665;51.786;21.594;2023-12-20T11:25:59;92336.95;;;4.76;100.00
50696;BME280;36665;51.786;21.594;2023-12-20T11:34:27;92315.67;;;4.70;100.00
50696;BME280;36665;51.786;21.594;2023-12-20T11:42:53;92306.38;;;4.67;100.00
50696;BME280;36665;51.786;21.594;2023-12-20T11:51:18;92293.71;;;4.64;100.00
50696;BME280;36665;51.786;21.594;2023-12-20T11:59:43;92294.19;;;4.65;100.00
50696;BME280;36665;51.786;21.594;2023-12-20T12:08:08;92290.07;;;4.63;100.00
50696;BME280;36665;51.786;21.594;2023-12-20T12:16:33;92262.73;;;4.56;100.00
50696;BME280;36665;51.786;21.594;2023-12-20T12:25:09;92242.40;;;4.51;100.00
50696;BME280;36665;51.786;21.594;2023-12-20T12:33:35;92248.40;;;4.52;100.00
50696;BME280;36665;51.786;21.594;2023-12-20T12:42:01;92256.31;;;4.54;100.00
50696;BME280;36665;51.786;21.594;2023-12-20T12:50:26;92244.29;;;4.51;100.00
50696;BME280;36665;51.786;21.594;2023-12-20T12:58:52;92238.08;;;4.50;100.00
50696;BME280;36665;51.786;21.594;2023-12-20T13:07:16;92232.98;;;4.48;100.00
50696;BME280;36665;51.786;21.594;2023-12-20T13:15:41;92232.50;;;4.48;100.00
50696;BME280;36665;51.786;21.594;2023-12-20T13:24:07;92217.80;;;4.43;100.00
50696;BME280;36665;51.786;21.594;2023-12-20T13:32:31;92157.33;;;4.27;100.00
50696;BME280;36665;51.786;21.594;2023-12-20T13:40:57;92115.87;;;4.16;100.00
50696;BME280;36665;51.786;21.594;2023-12-20T13:49:22;92087.16;;;4.09;100.00
50696;BME280;36665;51.786;21.594;2023-12-20T13:57:49;92066.74;;;4.04;100.00
50696;BME280;36665;51.786;21.594;2023-12-20T14:06:18;92029.42;;;3.93;100.00
50696;BME280;36665;51.786;21.594;2023-12-20T14:14:45;92011.35;;;3.88;100.00
50696;BME280;36665;51.786;21.594;2023-12-20T14:23:11;92008.11;;;3.88;100.00
50696;BME280;36665;51.786;21.594;2023-12-20T14:31:34;92002.34;;;3.86;100.00
50696;BME280;36665;51.786;21.594;2023-12-20T14:40:02;91962.79;;;3.76;100.00
50696;BME280;36665;51.786;21.594;2023-12-20T14:48:27;91933.58;;;3.67;100.00
50696;BME280;36665;51.786;21.594;2023-12-20T14:56:53;91926.14;;;3.66;100.00
50696;BME280;36665;51.786;21.594;2023-12-20T15:05:17;91937.33;;;3.70;100.00
50696;BME280;36665;51.786;21.594;2023-12-20T15:13:43;91923.39;;;3.65;100.00
50696;BME280;36665;51.786;21.594;2023-12-20T15:22:11;91922.70;;;3.64;100.00
50696;BME280;36665;51.786;21.594;2023-12-20T15:30:37;91927.23;;;3.66;100.00
50696;BME280;36665;51.786;21.594;2023-12-20T15:39:01;91955.39;;;3.74;100.00
50696;BME280;36665;51.786;21.594;2023-12-20T15:47:28;91985.05;;;3.81;100.00
50696;BME280;36665;51.786;21.594;2023-12-20T15:56:01;91968.77;;;3.77;100.00
50696;BME280;36665;51.786;21.594;2023-12-20T16:04:27;91949.04;;;3.72;100.00
50696;BME280;36665;51.786;21.594;2023-12-20T16:12:52;91956.79;;;3.73;100.00
50696;BME280;36665;51.786;21.594;2023-12-20T16:21:16;91956.22;;;3.74;100.00
50696;BME280;36665;51.786;21.594;2023-12-20T16:29:41;91923.85;;;3.65;100.00
50696;BME280;36665;51.786;21.594;2023-12-20T16:38:07;91914.08;;;3.62;100.00
50696;BME280;36665;51.786;21.594;2023-12-20T16:46:31;91923.13;;;3.65;100.00
50696;BME280;36665;51.786;21.594;2023-12-20T16:54:55;91947.38;;;3.72;100.00
50696;BME280;36665;51.786;21.594;2023-12-20T17:03:22;91934.21;;;3.68;100.00
50696;BME280;36665;51.786;21.594;2023-12-20T17:11:50;91918.90;;;3.63;100.00
50696;BME280;36665;51.786;21.594;2023-12-20T17:20:13;91900.91;;;3.59;100.00
50696;BME280;36665;51.786;21.594;2023-12-20T17:28:39;91859.83;;;3.49;100.00
50696;BME280;36665;51.786;21.594;2023-12-20T17:37:05;91823.16;;;3.39;100.00
50696;BME280;36665;51.786;21.594;2023-12-20T17:45:29;91811.14;;;3.35;100.00
50696;BME280;36665;51.786;21.594;2023-12-20T17:53:57;91773.49;;;3.25;100.00
50696;BME280;36665;51.786;21.594;2023-12-20T18:02:27;91782.27;;;3.27;100.00
50696;BME280;36665;51.786;21.594;2023-12-20T18:10:52;91797.35;;;3.31;100.00
50696;BME280;36665;51.786;21.594;2023-12-20T18:19:16;91766.63;;;3.24;100.00
50696;BME280;36665;51.786;21.594;2023-12-20T18:27:42;91718.55;;;3.10;100.00
50696;BME280;36665;51.786;21.594;2023-12-20T18:36:09;91671.76;;;2.98;100.00
50696;BME280;36665;51.786;21.594;2023-12-20T18:44:33;91634.17;;;2.88;100.00
50696;BME280;36665;51.786;21.594;2023-12-20T18:52:58;91640.66;;;2.90;100.00
50696;BME280;36665;51.786;21.594;2023-12-20T19:01:23;91669.81;;;2.98;100.00
50696;BME280;36665;51.786;21.594;2023-12-20T19:09:51;91712.73;;;3.08;100.00
50696;BME280;36665;51.786;21.594;2023-12-20T19:18:18;91712.21;;;3.09;100.00
50696;BME280;36665;51.786;21.594;2023-12-20T19:26:42;91719.96;;;3.11;100.00
50696;BME280;36665;51.786;21.594;2023-12-20T19:35:09;91728.70;;;3.14;100.00
50696;BME280;36665;51.786;21.594;2023-12-20T19:43:36;91733.10;;;3.14;100.00
50696;BME280;36665;51.786;21.594;2023-12-20T19:52:07;91742.41;;;3.17;100.00
50696;BME280;36665;51.786;21.594;2023-12-20T20:00:32;91746.10;;;3.18;100.00
50696;BME280;36665;51.786;21.594;2023-12-20T20:09:09;91740.95;;;3.16;100.00
50696;BME280;36665;51.786;21.594;2023-12-20T20:17:36;91745.33;;;3.18;100.00
50696;BME280;36665;51.786;21.594;2023-12-20T20:26:03;91773.91;;;3.25;100.00
50696;BME280;36665;51.786;21.594;2023-12-20T20:34:26;91802.77;;;3.33;100.00
50696;BME280;36665;51.786;21.594;2023-12-20T20:42:52;91815.97;;;3.37;100.00
50696;BME280;36665;51.786;21.594;2023-12-20T20:51:20;91657.29;;;2.95;100.00
50696;BME280;36665;51.786;21.594;2023-12-20T20:59:45;91380.73;;;2.21;100.00
50696;BME280;36665;51.786;21.594;2023-12-20T21:08:13;91256.13;;;1.87;100.00
50696;BME280;36665;51.786;21.594;2023-12-20T21:16:38;91243.39;;;1.83;100.00
50696;BME280;36665;51.786;21.594;2023-12-20T21:25:07;91263.65;;;1.90;100.00
50696;BME280;36665;51.786;21.594;2023-12-20T21:33:32;91271.48;;;1.91;100.00
50696;BME280;36665;51.786;21.594;2023-12-20T21:41:59;91237.14;;;1.82;100.00
50696;BME280;36665;51.786;21.594;2023-12-20T21:50:23;91209.14;;;1.74;100.00
50696;BME280;36665;51.786;21.594;2023-12-20T21:58:48;91227.59;;;1.79;100.00
50696;BME280;36665;51.786;21.594;2023-12-20T22:07:12;91242.25;;;1.83;100.00
50696;BME280;36665;51.786;21.594;2023-12-20T22:15:38;91220.86;;;1.78;100.00
50696;BME280;36665;51.786;21.594;2023-12-20T22:24:03;91209.14;;;1.75;100.00
50696;BME280;36665;51.786;21.594;2023-12-20T22:32:29;91217.95;;;1.78;100.00
50696;BME280;36665;51.786;21.594;2023-12-20T22:40:54;91238.11;;;1.82;100.00
50696;BME280;36665;51.786;21.594;2023-12-20T22:49:18;91241.48;;;1.84;100.00
50696;BME280;36665;51.786;21.594;2023-12-20T22:57:43;91241.27;;;1.83;100.00
50696;BME280;36665;51.786;21.594;2023-12-20T23:06:14;91249.45;;;1.85;100.00
50696;BME280;36665;51.786;21.594;2023-12-20T23:14:39;91252.99;;;1.87;100.00
50696;BME280;36665;51.786;21.594;2023-12-20T23:23:04;91237.81;;;1.83;100.00
50696;BME280;36665;51.786;21.594;2023-12-20T23:31:29;91204.70;;;1.73;100.00
50696;BME280;36665;51.786;21.594;2023-12-20T23:39:55;91166.58;;;1.64;100.00
50696;BME280;36665;51.786;21.594;2023-12-20T23:48:20;91176.15;;;1.65;100.00
50696;BME280;36665;51.786;21.594;2023-12-20T23:56:49;91186.20;;;1.68;100.00
